Blue Oak Ranch Reserve, California Weather observations

Data are for 10 minute period ending at time listed.
 Day   Time   Solar   Ave.   Ave.  Ave.  Vector  Max.   Baro.   Total    
  of    of     Rad.   Air    Rel.  Wind   Wind   Wind  Press.  Precip.   
Year   Day            Temp.  Hum.  Speed  Dir.   Gust                    
2020   (PST)  Kw/m2    F      %     mph   deg.    mph    mb.     in.     
-------------------------------------------------------------------------
 154   20:50   0.00   63.6    62    1.0   292     3.0   950.9    0.00 
 154   21:00   0.00   63.3    61    0.7    54     2.6   951.0    0.00 
 154   21:10   0.00   62.7    63    1.2   288     3.7   951.0    0.00 
 154   21:20   0.00   62.1    63    0.0     0     0.0   951.1    0.00 
 154   21:30   0.00   62.2    62    0.0     0     0.0   951.1    0.00 
 154   21:40   0.00   61.8    64    0.4    51     2.3   951.2    0.00 
 154   21:50   0.00   60.5    68    2.2   290     4.7   951.1    0.00 
 154   22:00   0.00   59.3    70    0.9   302     4.1   951.0    0.00 
 154   22:10   0.00   60.7    65    0.6    69     1.8   951.0    0.00 
 154   22:20   0.00   60.1    66    0.9   305     1.9   950.9    0.00 
 154   22:30   0.00   59.7    67    1.3   296     2.6   950.9    0.00 
 154   22:40   0.00   59.4    67    0.2   358     1.6   950.9    0.00 
 154   22:50   0.00   59.5    67    1.3   323     2.3   950.9    0.00 
 154   23:00   0.00   59.1    68    1.2   286     3.1   950.9    0.00 
 154   23:10   0.00   59.4    66    0.6   330     1.8   950.9    0.00 
 154   23:20   0.00   59.4    66    1.0    32     2.9   950.8    0.00 
 154   23:30   0.00   59.8    65    0.9   326     2.0   950.7    0.00 
 154   23:40   0.00   59.6    66    1.6   288     3.5   950.6    0.00 
 154   23:50   0.00   59.0    67    1.4    53     2.4   950.6    0.00 
 155    0:00   0.00   58.5    68    0.1    72     1.2   950.5    0.00 
 155    0:10   0.00   59.0    67    1.7   336     3.4   950.5    0.00 
 155    0:20   0.00   58.6    68    0.2   360     1.3   950.5    0.00 
 155    0:30   0.00   59.0    66    0.3   344     1.9   950.5    0.00 
 155    0:40   0.00   59.2    65    0.0    65     1.0   950.4    0.00 
 155    0:50   0.00   59.8    64    0.0     0     0.0   950.3    0.00 
 155    1:00   0.00   59.5    65    0.9   309     3.0   950.3    0.00 
 155    1:10   0.00   59.4    65    0.4   341     1.3   950.2    0.00 
 155    1:20   0.00   60.3    62    0.4   320     1.7   950.2    0.00 
 155    1:30   0.00   59.8    64    1.0   296     3.4   950.1    0.00 
 155    1:40   0.00   59.3    65    0.1   329     1.4   950.1    0.00 
 155    1:50   0.00   59.6    63    0.4   304     1.8   950.1    0.00 
 155    2:00   0.00   59.4    64    0.2    96     1.4   950.0    0.00 
 155    2:10   0.00   59.2    64    0.4   297     1.8   949.8    0.00 
 155    2:20   0.00   58.4    66    0.4   288     1.2   949.8    0.00 
 155    2:30   0.00   58.7    65    0.8   297     2.6   949.8    0.00 
 155    2:40   0.00   58.8    64    0.5    58     1.5   949.8    0.00 
 155    2:50   0.00   59.4    62    0.3   267     1.5   949.8    0.00 
 155    3:00   0.00   58.9    64    0.6   297     1.4   949.6    0.00 
 155    3:10   0.00   58.6    64    0.8   300     2.6   949.6    0.00 
 155    3:20   0.00   58.6    64    1.3   293     2.5   949.5    0.00 
 155    3:30   0.00   59.1    62    0.4   292     1.7   949.6    0.00 
 155    3:40   0.00   58.8    62    0.3    42     1.4   949.5    0.00 
 155    3:50   0.00   59.4    60    0.4   316     1.5   949.6    0.00 
 155    4:00   0.00   59.1    61    0.6   350     2.6   949.7    0.00 
 155    4:10   0.00   57.9    64    2.6   301     3.7   949.6    0.00 
 155    4:20   0.00   58.0    62    0.5   296     1.8   949.5    0.00 
 155    4:30   0.00   60.4    58    0.2   255     1.2   949.7    0.00 
 155    4:40   0.00   59.9    59    0.9   273     1.7   949.6    0.00 
 155    4:50   0.00   59.1    62    2.3   296     4.5   949.7    0.00 
 155    5:00   0.01   59.6    60    0.6   315     1.8   949.6    0.00 
 155    5:10   0.01   60.9    58    0.5   284     2.0   949.7    0.00 
 155    5:20   0.02   61.0    58    0.2   267     1.7   949.8    0.00 
 155    5:30   0.02   60.9    59    0.7   297     2.6   949.9    0.00 
 155    5:40   0.03   61.3    59    0.9   299     2.9   949.9    0.00 
 155    5:50   0.05   62.2    59    0.3   327     1.8   950.0    0.00 
 155    6:00   0.12   63.4    58    0.4   188     1.5   950.1    0.00 
 155    6:10   0.15   66.1    56    0.6   306     1.5   950.2    0.00 
 155    6:20   0.18   69.2    52    0.0     0     0.0   950.2    0.00 
 155    6:30   0.21   72.6    49    0.0    90     0.9   950.3    0.00 
 155    6:40   0.25   75.5    48    0.6    84     1.9   950.4    0.00 
 155    6:50   0.28   78.4    45    0.3    24     1.0   950.4    0.00 
 155    7:00   0.31   78.6    47    0.3    64     1.8   950.4    0.00 
 155    7:10   0.34   79.8    44    0.0     0     0.0   950.4    0.00 
 155    7:20   0.38   81.4    44    0.1    77     1.2   950.5    0.00 
 155    7:30   0.41   82.1    41    1.1    94     1.8   950.5    0.00 
 155    7:40   0.44   83.9    35    0.8   274     2.8   950.4    0.00 
 155    7:50   0.48   85.4    34    2.8   268     4.3   950.5    0.00 
 155    8:00   0.51   86.5    31    2.9   267     6.3   950.6    0.00 
 155    8:10   0.54   87.1    29    4.4   288     6.1   950.5    0.00 
 155    8:20   0.57   87.4    28    4.9   285     6.0   950.6    0.00 
 155    8:30   0.60   88.6    28    4.2   278     6.1   950.7    0.00 
 155    8:40   0.63   87.4    29    4.9   238     7.3   950.7    0.00 
 155    8:50   0.66   85.9    31    3.5   233     5.6   950.7    0.00 
 155    9:00   0.69   87.3    30    3.4   254     5.8   950.6    0.00 
 155    9:10   0.72   88.0    27    4.7   270     9.3   950.5    0.00 
 155    9:20   0.74   88.8    27    5.0   270     9.5   950.5    0.00 
 155    9:30   0.77   88.5    30    5.5   255     9.2   950.6    0.00 
 155    9:40   0.79   86.8    31    5.6   255     9.4   950.6    0.00 
 155    9:50   0.81   85.9    31    5.4   256     8.8   950.7    0.00 
 155   10:00   0.83   86.0    30    4.6   239     8.0   950.8    0.00 
 155   10:10   0.86   86.7    30    4.7   242     8.3   950.8    0.00 
 155   10:20   0.88   88.2    30    5.3   255    10.0   950.8    0.00 
 155   10:30   0.89   88.1    29    6.4   238    10.2   950.8    0.00 
 155   10:40   0.91   87.7    29    6.5   230    10.2   950.7    0.00 
 155   10:50   0.92   88.5    30    5.2   249     8.7   950.7    0.00 
 155   11:00   0.94   89.4    29    5.3   245     9.7   950.6    0.00 
 155   11:10   0.95   89.6    28    5.7   242     9.7   950.6    0.00 
 155   11:20   0.96   89.7    29    6.9   256    10.2   950.6    0.00 
 155   11:30   0.96   89.1    30    6.5   253    13.2   950.6    0.00 
 155   11:40   0.97   88.8    30    5.8   246     9.9   950.5    0.00 
 155   11:50   0.97   89.6    30    6.0   256     9.9   950.5    0.00 
 155   12:00   0.97   89.0    28    7.1   247    12.4   950.4    0.00 
 155   12:10   0.98   89.4    28    5.4   264    10.9   950.3    0.00 
 155   12:20   0.98   89.7    26    6.6   252    10.4   950.1    0.00 
 155   12:30   0.98   89.5    25    6.5   245    12.4   950.0    0.00 
 155   12:40   0.97   90.3    24    5.5   242    10.2   949.8    0.00 
 155   12:50   0.94   91.3    22    5.7   266    12.0   949.8    0.00 
 155   13:00   0.96   91.5    21    5.8   270    10.0   949.7    0.00 
 155   13:10   0.95   92.0    21    6.5   281     9.9   949.6    0.00 
 155   13:20   0.94   92.5    21    4.9   289    11.3   949.6    0.00 
 155   13:30   0.93   92.7    21    5.8   277    11.5   949.5    0.00 
 155   13:40   0.92   91.8    21    6.2   291    11.5   949.5    0.00 
 155   13:50   0.90   92.8    21    6.9   290    12.9   949.4    0.00 
 155   14:00   0.89   91.7    21    7.5   302    13.2   949.3    0.00 
 155   14:10   0.87   92.1    21    5.3   302    12.9   949.2    0.00 
 155   14:20   0.85   92.7    21    7.4   287    14.4   949.1    0.00 
 155   14:30   0.83   92.5    22    6.8   286    14.8   949.1    0.00 
 155   14:40   0.81   92.7    22    8.0   291    14.8   949.0    0.00 
 155   14:50   0.78   92.8    22    6.8   285    11.0   949.0    0.00 
 155   15:00   0.76   93.0    22    7.3   291    12.2   948.8    0.00 
 155   15:10   0.73   92.6    22    7.5   296    13.1   948.7    0.00 
 155   15:20   0.71   92.7    22    7.6   297    13.2   948.6    0.00 
 155   15:30   0.68   92.1    22    8.7   296    13.8   948.6    0.00 
 155   15:40   0.65   92.4    23    7.6   287    12.3   948.5    0.00 
 155   15:50   0.62   92.7    23    7.8   282    12.5   948.4    0.00 
 155   16:00   0.59   92.3    24    7.6   288    12.3   948.4    0.00 
 155   16:10   0.56   92.5    24    8.3   280    12.3   948.3    0.00 
 155   16:20   0.53   92.3    24    6.3   276    10.9   948.3    0.00 
 155   16:30   0.50   92.5    23    6.4   281     9.9   948.3    0.00 
 155   16:40   0.47   92.5    22    6.6   282    11.2   948.2    0.00 
 155   16:50   0.44   92.0    23    6.3   279     9.6   948.2    0.00 
 155   17:00   0.40   91.5    24    6.2   282    12.1   948.1    0.00 
 155   17:10   0.37   91.1    25    6.3   283    10.3   948.1    0.00 
 155   17:20   0.34   90.6    24    6.7   280    10.7   948.1    0.00 
 155   17:30   0.30   89.8    25    6.5   283    11.2   948.1    0.00 
 155   17:40   0.27   88.9    26    7.1   283    11.3   948.1    0.00 
 155   17:50   0.24   87.2    26    7.6   300    12.4   948.1    0.00 
 155   18:00   0.21   86.6    28    5.1   286    10.1   948.2    0.00 
 155   18:10   0.18   86.8    26    5.1   278     9.3   948.1    0.00 
 155   18:20   0.15   85.9    25    4.6   268     7.6   948.2    0.00 
 155   18:30   0.12   84.9    25    3.6   272     7.0   948.3    0.00 
 155   18:40   0.10   84.3    24    3.0   260     5.9   948.2    0.00 
 155   18:50   0.07   81.9    28    1.5   255     3.4   948.2    0.00 
 155   19:00   0.05   76.7    36    1.0    38     2.4   948.2    0.00 
 155   19:10   0.02   73.8    40    1.8    21     2.8   948.1    0.00 
 155   19:20   0.01   71.7    42    1.1    40     2.6   948.1    0.00 
 155   19:30   0.00   70.4    44    0.5    25     1.8   948.1    0.00 
 155   19:40   0.00   69.5    44    1.4   292     4.6   948.0    0.00 
 155   19:50   0.00   68.4    46    1.5   317     3.7   948.1    0.00 
 155   20:00   0.00   67.4    46    1.9    55     4.2   948.1    0.00 
 155   20:10   0.00   66.8    47    0.7   292     2.4   948.1    0.00 
 155   20:20   0.00   66.2    49    0.2   318     1.2   948.0    0.00 
 155   20:30   0.00   65.3    50    0.0   285     0.6   947.9    0.00 
 155   20:40   0.00   64.9    50    0.5   325     1.2   947.9    0.00 

Return to Blue Oak Ranch Reserve graphs page.


Western Regional Climate Center,wrcc@dri.edu